createdAt,value
2018-09-04T00:02:12.696Z,8.27
2018-09-04T00:04:47.092Z,8.87
2018-09-04T00:07:22.743Z,9.00
2018-09-04T00:09:56.975Z,8.37
2018-09-04T00:12:31.343Z,8.73
2018-09-04T00:15:05.584Z,7.93
2018-09-04T00:17:39.892Z,8.17
2018-09-04T00:20:14.183Z,8.27
2018-09-04T00:22:48.624Z,8.17
2018-09-04T00:25:22.819Z,8.57
2018-09-04T00:27:57.076Z,8.40
2018-09-04T00:30:31.339Z,8.17
2018-09-04T00:33:05.493Z,8.37
2018-09-04T00:35:39.788Z,8.23
2018-09-04T00:38:14.116Z,7.97
2018-09-04T00:40:48.315Z,8.20
2018-09-04T00:43:23.096Z,8.60
2018-09-04T00:45:57.556Z,8.33
2018-09-04T00:48:31.904Z,8.50
2018-09-04T00:51:06.223Z,8.70
2018-09-04T00:53:40.528Z,7.97
2018-09-04T00:56:14.795Z,8.13
2018-09-04T00:58:49.092Z,8.37
2018-09-04T01:01:23.400Z,8.27
2018-09-04T01:03:57.763Z,8.43
2018-09-04T01:06:32.216Z,7.93
2018-09-04T01:09:07.248Z,8.40
2018-09-04T01:11:41.588Z,8.93
2018-09-04T01:14:15.801Z,8.20
2018-09-04T01:16:50.049Z,8.70
2018-09-04T01:19:24.336Z,8.53
2018-09-04T01:21:58.654Z,8.17
2018-09-04T01:24:33.048Z,8.23
2018-09-04T01:27:07.340Z,8.07
2018-09-04T01:29:41.679Z,8.37
2018-09-04T01:32:17.043Z,8.77
2018-09-04T01:34:51.266Z,8.60
2018-09-04T01:37:25.613Z,8.47
2018-09-04T01:39:59.898Z,8.23
2018-09-04T01:42:34.455Z,8.20
2018-09-04T01:45:08.645Z,8.10
2018-09-04T01:47:42.924Z,8.50
2018-09-04T01:50:17.228Z,8.03
2018-09-04T01:52:51.455Z,8.53
2018-09-04T01:55:25.766Z,8.03
2018-09-04T01:58:00.220Z,8.20
2018-09-04T02:00:34.496Z,8.13
2018-09-04T02:03:08.704Z,8.73
2018-09-04T02:05:43.300Z,8.10
2018-09-04T02:08:17.622Z,8.63
2018-09-04T02:10:51.812Z,8.47
2018-09-04T02:13:26.107Z,8.20
2018-09-04T02:16:00.396Z,8.13
2018-09-04T02:18:34.703Z,8.17
2018-09-04T02:21:09.068Z,8.00
2018-09-04T02:23:43.379Z,8.10
2018-09-04T02:26:17.640Z,8.63
2018-09-04T02:28:51.832Z,7.83
2018-09-04T02:31:26.172Z,8.57
2018-09-04T02:34:00.336Z,8.50
2018-09-04T02:36:34.705Z,8.37
2018-09-04T02:39:10.100Z,7.90
2018-09-04T02:41:44.343Z,8.50
2018-09-04T02:44:18.608Z,8.63
2018-09-04T02:46:52.924Z,7.70
2018-09-04T02:49:27.218Z,8.50
2018-09-04T02:52:01.448Z,7.93
2018-09-04T02:54:35.684Z,7.70
2018-09-04T02:57:09.961Z,7.67
2018-09-04T02:59:44.088Z,8.40
2018-09-04T03:02:18.374Z,7.67
2018-09-04T03:04:52.671Z,8.13
2018-09-04T03:07:26.977Z,7.47
2018-09-04T03:10:01.329Z,7.73
2018-09-04T03:12:35.599Z,7.83
2018-09-04T03:15:09.880Z,7.80
2018-09-04T03:17:44.204Z,7.67
2018-09-04T03:20:18.635Z,8.20
2018-09-04T03:22:53.395Z,8.37
2018-09-04T03:25:27.547Z,7.93
2018-09-04T03:28:01.845Z,8.30
2018-09-04T03:30:36.176Z,7.83
2018-09-04T03:33:10.461Z,7.87
2018-09-04T03:35:44.743Z,7.90
2018-09-04T03:38:19.084Z,7.97
2018-09-04T03:40:53.528Z,8.30
2018-09-04T03:43:27.708Z,8.63
2018-09-04T03:46:01.903Z,7.93
2018-09-04T03:48:36.233Z,7.87
2018-09-04T03:51:10.535Z,7.87
2018-09-04T03:53:44.834Z,7.57
2018-09-04T03:56:19.132Z,7.87
2018-09-04T03:58:53.468Z,8.47
2018-09-04T04:01:27.762Z,8.00
2018-09-04T04:04:02.028Z,8.10
2018-09-04T04:06:36.337Z,7.60
2018-09-04T04:09:11.432Z,7.47
2018-09-04T04:11:45.643Z,7.53
2018-09-04T04:14:19.932Z,8.20
2018-09-04T04:16:54.256Z,7.20
2018-09-04T04:19:28.580Z,8.07
2018-09-04T04:22:03.031Z,8.17
2018-09-04T04:24:40.887Z,7.67
2018-09-04T04:27:15.326Z,8.27
2018-09-04T04:29:49.688Z,7.40
2018-09-04T04:32:24.716Z,7.73
2018-09-04T04:34:58.868Z,8.60
2018-09-04T04:37:33.215Z,8.30
2018-09-04T04:40:07.603Z,7.57
2018-09-04T04:42:41.820Z,7.87
2018-09-04T04:45:16.136Z,7.37
2018-09-04T04:47:50.373Z,7.90
2018-09-04T04:50:24.668Z,7.70
2018-09-04T04:52:58.883Z,7.63
2018-09-04T04:55:33.171Z,8.13
2018-09-04T04:58:07.576Z,8.13
2018-09-04T05:00:41.838Z,7.83
2018-09-04T05:03:16.063Z,7.70
2018-09-04T05:05:51.043Z,8.00
2018-09-04T05:08:25.223Z,7.77
2018-09-04T05:10:59.542Z,7.90
2018-09-04T05:13:33.820Z,7.97
2018-09-04T05:16:08.008Z,8.50
2018-09-04T05:18:42.404Z,7.50
2018-09-04T05:21:16.692Z,7.77
2018-09-04T05:23:51.048Z,8.07
2018-09-04T05:26:25.215Z,7.60
2018-09-04T05:28:59.567Z,8.67
2018-09-04T05:31:38.192Z,7.77
2018-09-04T05:34:12.349Z,7.80
2018-09-04T05:36:46.755Z,8.43
2018-09-04T05:39:21.008Z,7.20
2018-09-04T05:41:59.659Z,7.83
2018-09-04T05:44:33.956Z,8.23
2018-09-04T05:47:08.172Z,7.60
2018-09-04T05:49:42.476Z,8.17
2018-09-04T05:52:16.812Z,7.83
2018-09-04T05:54:51.032Z,6.97
2018-09-04T05:57:25.345Z,7.77
2018-09-04T05:59:59.748Z,7.10
2018-09-04T06:02:33.950Z,25.77
2018-09-04T06:05:08.304Z,29.47
2018-09-04T06:07:43.191Z,31.03
2018-09-04T06:10:17.520Z,31.27
2018-09-04T06:12:51.909Z,31.23
2018-09-04T06:15:26.204Z,31.67
2018-09-04T06:18:00.554Z,33.53
2018-09-04T06:20:34.788Z,32.00
2018-09-04T06:23:09.013Z,32.60
2018-09-04T06:25:43.334Z,30.97
2018-09-04T06:28:17.524Z,31.80
2018-09-04T06:30:51.870Z,32.77
2018-09-04T06:33:26.176Z,32.43
2018-09-04T06:36:00.464Z,32.07
2018-09-04T06:38:34.688Z,34.77
2018-09-04T06:41:09.008Z,35.33
2018-09-04T06:43:43.350Z,26.03
2018-09-04T06:46:17.668Z,34.23
2018-09-04T06:48:52.000Z,35.43
2018-09-04T06:51:26.423Z,35.67
2018-09-04T06:54:00.792Z,21.20
2018-09-04T06:56:35.120Z,31.70
2018-09-04T06:59:09.460Z,20.33
2018-09-04T07:01:43.779Z,21.77
2018-09-04T07:04:18.134Z,35.77
2018-09-04T07:06:52.468Z,36.43
2018-09-04T07:09:26.813Z,23.80
2018-09-04T07:12:01.068Z,24.57
2018-09-04T07:14:35.328Z,37.10
2018-09-04T07:17:09.709Z,37.83
2018-09-04T07:19:44.177Z,24.20
2018-09-04T07:22:18.492Z,35.90
2018-09-04T07:24:52.690Z,35.33
2018-09-04T07:27:27.056Z,37.20
2018-09-04T07:30:01.398Z,37.53
2018-09-04T07:32:35.651Z,36.47
2018-09-04T07:35:09.968Z,39.73
2018-09-04T07:37:44.198Z,39.63
2018-09-04T07:40:18.503Z,39.60
2018-09-04T07:42:52.764Z,38.53
2018-09-04T07:45:27.020Z,38.80
2018-09-04T07:48:01.353Z,39.23
2018-09-04T07:50:35.708Z,39.93
2018-09-04T07:53:10.028Z,40.13
2018-09-04T07:55:44.312Z,36.33
2018-09-04T07:58:18.626Z,37.33
2018-09-04T08:00:53.033Z,39.07
2018-09-04T08:03:27.417Z,38.73
2018-09-04T08:06:01.752Z,38.63
2018-09-04T08:08:36.455Z,38.70
2018-09-04T08:11:10.780Z,40.53
2018-09-04T08:13:45.156Z,37.50
2018-09-04T08:16:19.382Z,38.40
2018-09-04T08:18:53.780Z,39.40
2018-09-04T08:21:28.244Z,38.80
2018-09-04T08:24:03.528Z,37.77
2018-09-04T08:26:37.783Z,37.93
2018-09-04T08:29:12.223Z,38.43
2018-09-04T08:31:46.518Z,37.57
2018-09-04T08:34:20.860Z,38.83
2018-09-04T08:36:55.169Z,38.97
2018-09-04T08:39:29.495Z,38.90
2018-09-04T08:42:03.840Z,36.90
2018-09-04T08:44:38.164Z,30.30
2018-09-04T08:47:12.368Z,30.43
2018-09-04T08:49:46.669Z,32.07
2018-09-04T08:52:20.908Z,38.67
2018-09-04T08:54:55.529Z,38.23
2018-09-04T08:57:29.685Z,38.83
2018-09-04T09:00:04.028Z,37.53
2018-09-04T09:02:38.347Z,37.40
2018-09-04T09:05:12.657Z,36.10
2018-09-04T09:07:47.079Z,35.37
2018-09-04T09:10:21.391Z,29.87
2018-09-04T09:12:55.599Z,28.30
2018-09-04T09:15:29.981Z,23.07
2018-09-04T09:18:04.190Z,33.33
2018-09-04T09:20:38.360Z,30.43
2018-09-04T09:23:12.807Z,35.77
2018-09-04T09:25:47.181Z,29.87
2018-09-04T09:28:21.528Z,28.90
2018-09-04T09:30:55.844Z,24.93
2018-09-04T09:33:30.128Z,27.07
2018-09-04T09:36:04.465Z,29.70
2018-09-04T09:38:38.732Z,22.70
2018-09-04T09:41:13.075Z,22.30
2018-09-04T09:43:47.424Z,26.77
2018-09-04T09:46:22.199Z,29.03
2018-09-04T09:48:56.652Z,26.83
2018-09-04T09:51:31.020Z,25.40
2018-09-04T09:54:05.506Z,19.23
2018-09-04T09:56:39.757Z,17.67
2018-09-04T09:59:14.084Z,19.37
2018-09-04T10:01:57.452Z,21.20
2018-09-04T10:04:31.746Z,18.27
2018-09-04T10:07:06.215Z,27.53
2018-09-04T10:12:39.499Z,25.17
2018-09-04T10:15:13.817Z,20.80
2018-09-04T10:17:48.212Z,22.20
2018-09-04T10:20:22.440Z,25.60
2018-09-04T10:22:56.624Z,24.93
2018-09-04T10:25:30.896Z,15.93
2018-09-04T10:28:05.240Z,24.83
2018-09-04T10:30:39.576Z,25.90
2018-09-04T10:33:14.033Z,15.97
2018-09-04T10:35:48.213Z,13.97
2018-09-04T10:38:26.476Z,18.13
2018-09-04T10:41:01.800Z,14.03
2018-09-04T10:43:36.000Z,12.70
2018-09-04T10:46:11.768Z,16.30
2018-09-04T10:48:46.008Z,19.63
2018-09-04T10:51:20.280Z,16.47
2018-09-04T10:53:54.691Z,14.83
2018-09-04T10:56:28.920Z,13.67
2018-09-04T10:59:03.338Z,14.07
2018-09-04T11:01:37.573Z,23.90
2018-09-04T11:04:11.880Z,26.67
2018-09-04T11:06:46.209Z,15.67
2018-09-04T11:09:20.611Z,13.63
2018-09-04T11:11:54.872Z,14.00
2018-09-04T11:14:29.175Z,16.60
2018-09-04T11:17:03.528Z,20.07
2018-09-04T11:19:37.942Z,15.07
2018-09-04T11:22:12.195Z,17.27
2018-09-04T11:24:46.496Z,16.37
2018-09-04T11:27:20.872Z,14.70
2018-09-04T11:29:55.051Z,14.47
2018-09-04T11:32:29.376Z,14.73
2018-09-04T11:35:03.702Z,15.37
2018-09-04T11:37:37.940Z,16.40
2018-09-04T11:40:12.285Z,24.40
2018-09-04T11:42:46.672Z,18.63
2018-09-04T11:45:20.926Z,26.03
2018-09-04T11:47:55.245Z,25.47
2018-09-04T11:50:29.724Z,16.33
2018-09-04T11:53:04.049Z,17.07
2018-09-04T11:55:38.409Z,23.87
2018-09-04T11:58:12.628Z,26.83
2018-09-04T12:00:48.020Z,18.07
2018-09-04T12:03:22.226Z,26.07
2018-09-04T12:05:56.477Z,28.03
2018-09-04T12:08:30.657Z,21.83
2018-09-04T12:11:04.996Z,21.20
2018-09-04T12:13:39.273Z,21.20
2018-09-04T12:16:13.692Z,14.23
2018-09-04T12:18:47.928Z,14.23
2018-09-04T12:21:22.286Z,17.80
2018-09-04T12:23:56.555Z,18.27
2018-09-04T12:26:30.860Z,17.93
2018-09-04T12:29:05.351Z,17.97
2018-09-04T12:31:39.577Z,16.97
2018-09-04T12:34:13.891Z,16.00
2018-09-04T12:36:48.203Z,17.80
2018-09-04T12:39:22.416Z,16.73
2018-09-04T12:41:56.640Z,15.73
2018-09-04T12:44:30.969Z,13.67
2018-09-04T12:47:05.608Z,12.87
2018-09-04T12:49:39.968Z,14.20
2018-09-04T12:52:14.370Z,14.63
2018-09-04T12:54:48.646Z,12.07
2018-09-04T12:57:22.920Z,15.73
2018-09-04T12:59:57.189Z,15.17
2018-09-04T13:02:44.167Z,15.57
2018-09-04T13:05:18.732Z,16.70
2018-09-04T13:07:52.994Z,13.73
2018-09-04T13:10:27.667Z,15.93
2018-09-04T13:13:01.924Z,16.57
2018-09-04T13:15:36.160Z,14.30
2018-09-04T13:18:10.476Z,14.70
2018-09-04T13:20:44.823Z,14.40
2018-09-04T13:23:18.991Z,14.50
2018-09-04T13:25:53.763Z,15.63
2018-09-04T13:28:28.547Z,13.43
2018-09-04T13:31:02.701Z,15.97
2018-09-04T13:33:37.067Z,13.70
2018-09-04T13:36:11.340Z,13.87
2018-09-04T13:38:45.623Z,13.73
2018-09-04T13:41:19.816Z,13.57
2018-09-04T13:43:54.068Z,13.57
2018-09-04T13:46:28.381Z,13.80
2018-09-04T13:49:02.671Z,13.30
2018-09-04T13:51:37.786Z,16.23
2018-09-04T13:54:12.008Z,13.00
2018-09-04T13:56:46.364Z,14.03
2018-09-04T13:59:20.636Z,14.73
2018-09-04T14:01:54.948Z,15.43
2018-09-04T14:04:29.437Z,14.07
2018-09-04T14:07:03.659Z,13.00
2018-09-04T14:09:38.222Z,13.87
2018-09-04T14:12:12.836Z,11.83
2018-09-04T14:14:47.044Z,13.10
2018-09-04T14:17:21.501Z,13.37
2018-09-04T14:19:55.716Z,13.53
2018-09-04T14:22:30.139Z,11.50
2018-09-04T14:25:04.336Z,15.07
2018-09-04T14:27:38.673Z,11.17
2018-09-04T14:30:16.242Z,10.83
2018-09-04T14:32:47.273Z,14.47
2018-09-04T14:35:21.491Z,13.27
2018-09-04T14:37:55.832Z,13.17
2018-09-04T14:40:30.183Z,12.80
2018-09-04T14:43:04.521Z,14.23
2018-09-04T14:45:38.896Z,12.93
2018-09-04T14:48:13.205Z,13.77
2018-09-04T14:50:47.451Z,14.53
2018-09-04T14:53:21.792Z,15.47
2018-09-04T14:55:56.379Z,16.03
2018-09-04T14:58:30.729Z,15.47
2018-09-04T15:01:04.952Z,16.13
2018-09-04T15:03:39.199Z,18.17
2018-09-04T15:06:13.543Z,17.73
2018-09-04T15:08:47.764Z,18.10
2018-09-04T15:11:21.976Z,16.77
2018-09-04T15:13:56.292Z,17.20
2018-09-04T15:16:30.591Z,14.43
2018-09-04T15:19:05.148Z,15.27
2018-09-04T15:21:39.511Z,16.40
2018-09-04T15:24:13.885Z,14.03
2018-09-04T15:26:48.348Z,12.60
2018-09-04T15:29:22.639Z,12.77
2018-09-04T15:31:57.105Z,13.63
2018-09-04T15:34:31.456Z,13.03
2018-09-04T15:37:05.701Z,11.27
2018-09-04T15:39:39.983Z,11.33
2018-09-04T15:42:14.248Z,10.70
2018-09-04T15:44:48.568Z,10.80
2018-09-04T15:47:22.908Z,12.47
2018-09-04T15:49:57.172Z,12.60
2018-09-04T15:52:31.524Z,11.10
2018-09-04T15:55:05.860Z,12.20
2018-09-04T15:57:40.248Z,13.03
2018-09-04T16:00:14.448Z,13.97
2018-09-04T16:02:48.722Z,13.37
2018-09-04T16:05:23.259Z,13.43
2018-09-04T16:07:57.635Z,13.87
2018-09-04T16:10:31.927Z,12.43
2018-09-04T16:13:06.159Z,10.77
2018-09-04T16:15:40.584Z,12.20
2018-09-04T16:18:14.902Z,15.53
2018-09-04T16:20:49.447Z,12.47
2018-09-04T16:23:23.635Z,11.30
2018-09-04T16:25:58.137Z,10.00
2018-09-04T16:28:32.319Z,13.23
2018-09-04T16:31:06.535Z,9.90
2018-09-04T16:33:40.919Z,12.43
2018-09-04T16:36:15.124Z,9.90
2018-09-04T16:38:50.285Z,9.97
2018-09-04T16:41:24.509Z,14.33
2018-09-04T16:43:58.781Z,10.30
2018-09-04T16:46:33.408Z,10.37
2018-09-04T16:49:07.772Z,9.90
2018-09-04T16:51:42.224Z,8.70
2018-09-04T16:54:16.620Z,9.30
2018-09-04T16:56:50.955Z,9.03
2018-09-04T16:59:25.236Z,9.40
2018-09-04T17:01:59.408Z,9.20
2018-09-04T17:04:33.900Z,8.27
2018-09-04T17:07:08.224Z,8.83
2018-09-04T17:09:42.516Z,8.30
2018-09-04T17:12:16.871Z,7.77
2018-09-04T17:14:51.074Z,7.57
2018-09-04T17:17:25.379Z,7.97
2018-09-04T17:19:59.684Z,7.73
2018-09-04T17:22:34.044Z,8.60
2018-09-04T17:25:08.323Z,7.57
2018-09-04T17:27:42.640Z,7.83
2018-09-04T17:30:17.039Z,8.17
2018-09-04T17:32:52.024Z,8.20
2018-09-04T17:35:26.351Z,8.70
2018-09-04T17:38:00.669Z,9.13
2018-09-04T17:40:35.020Z,9.10
2018-09-04T17:43:09.336Z,9.57
2018-09-04T17:45:43.581Z,8.90
2018-09-04T17:48:17.793Z,7.77
2018-09-04T17:50:52.097Z,8.10
2018-09-04T17:53:26.443Z,7.33
2018-09-04T17:56:00.886Z,9.27
2018-09-04T17:58:35.231Z,9.63
2018-09-04T18:01:09.537Z,8.83
2018-09-04T18:03:43.855Z,7.73
2018-09-04T18:06:18.208Z,8.27
2018-09-04T18:08:52.404Z,7.20
2018-09-04T18:11:26.611Z,6.90
2018-09-04T18:14:01.016Z,7.23
2018-09-04T18:16:35.276Z,7.30
2018-09-04T18:19:09.624Z,7.33
2018-09-04T18:21:43.843Z,7.33
2018-09-04T18:24:18.526Z,6.97
2018-09-04T18:26:52.884Z,7.13
2018-09-04T18:29:27.216Z,7.20
2018-09-04T18:32:01.448Z,6.80
2018-09-04T18:34:35.829Z,7.60
2018-09-04T18:37:10.178Z,6.73
2018-09-04T18:39:44.479Z,6.87
2018-09-04T18:42:18.832Z,7.00
2018-09-04T18:44:53.098Z,7.00
2018-09-04T18:47:27.420Z,6.57
2018-09-04T18:50:01.978Z,7.00
2018-09-04T18:52:36.168Z,7.00
2018-09-04T18:55:10.469Z,6.47
2018-09-04T18:57:44.787Z,6.13
2018-09-04T19:00:19.163Z,6.80
2018-09-04T19:02:53.348Z,6.50
2018-09-04T19:05:27.598Z,6.73
2018-09-04T19:08:01.852Z,5.97
2018-09-04T19:10:36.166Z,6.47
2018-09-04T19:13:10.435Z,6.77
2018-09-04T19:15:44.724Z,6.90
2018-09-04T19:18:19.171Z,6.37
2018-09-04T19:20:53.628Z,6.77
2018-09-04T19:23:27.992Z,6.60
2018-09-04T19:26:02.284Z,6.43
2018-09-04T19:28:36.639Z,7.20
2018-09-04T19:31:10.852Z,6.40
2018-09-04T19:33:45.192Z,6.33
2018-09-04T19:36:19.500Z,7.00
2018-09-04T19:38:53.920Z,7.10
2018-09-04T19:41:28.484Z,7.20
2018-09-04T19:44:02.861Z,6.43
2018-09-04T19:46:37.123Z,7.30
2018-09-04T19:49:11.397Z,6.60
2018-09-04T19:51:45.681Z,6.43
2018-09-04T19:54:20.101Z,7.30
2018-09-04T19:56:54.331Z,6.57
2018-09-04T19:59:28.624Z,6.57
2018-09-04T20:02:03.204Z,6.57
2018-09-04T20:04:37.527Z,6.93
2018-09-04T20:07:11.828Z,6.90
2018-09-04T20:09:46.084Z,7.10
2018-09-04T20:12:20.359Z,6.90
2018-09-04T20:14:54.616Z,7.50
2018-09-04T20:17:28.876Z,7.40
2018-09-04T20:20:03.365Z,7.97
2018-09-04T20:22:37.624Z,7.17
2018-09-04T20:25:11.907Z,7.00
2018-09-04T20:27:46.244Z,7.33
2018-09-04T20:30:20.542Z,7.47
2018-09-04T20:32:54.754Z,7.13
2018-09-04T20:35:28.924Z,6.40
2018-09-04T20:38:03.249Z,7.30
2018-09-04T20:40:37.494Z,10.23
2018-09-04T20:43:11.803Z,7.40
2018-09-04T20:45:45.960Z,8.37
2018-09-04T20:48:20.279Z,6.67
2018-09-04T20:50:54.647Z,6.70
2018-09-04T20:53:29.036Z,7.53
2018-09-04T20:56:03.203Z,6.87
2018-09-04T20:58:48.783Z,6.90
2018-09-04T21:01:34.517Z,7.57
2018-09-04T21:04:20.232Z,6.60
2018-09-04T21:06:54.636Z,6.87
2018-09-04T21:09:39.443Z,7.30
2018-09-04T21:12:13.649Z,7.50
2018-09-04T21:14:47.949Z,7.57
2018-09-04T21:17:22.268Z,7.37
2018-09-04T21:19:56.592Z,7.37
2018-09-04T21:22:30.868Z,6.83
2018-09-04T21:25:05.891Z,7.50
2018-09-04T21:27:40.224Z,7.43
2018-09-04T21:30:14.580Z,6.93
2018-09-04T21:32:48.896Z,7.43
2018-09-04T21:35:23.404Z,6.87
2018-09-04T21:37:57.740Z,6.97
2018-09-04T21:40:31.921Z,7.37
2018-09-04T21:43:06.255Z,6.60
2018-09-04T21:45:40.600Z,7.00
2018-09-04T21:48:14.892Z,6.73
2018-09-04T21:50:49.136Z,6.70
2018-09-04T21:53:23.480Z,6.23
2018-09-04T21:55:57.740Z,7.60
2018-09-04T21:58:31.940Z,7.00
2018-09-04T22:01:06.313Z,6.73
2018-09-04T22:03:40.552Z,6.97
2018-09-04T22:06:14.739Z,6.50
2018-09-04T22:08:49.431Z,6.13
2018-09-04T22:11:23.807Z,6.60
2018-09-04T22:13:58.208Z,7.07
2018-09-04T22:16:32.600Z,6.70
2018-09-04T22:19:06.907Z,6.47
2018-09-04T22:21:41.280Z,6.90
2018-09-04T22:24:15.572Z,6.50
2018-09-04T22:26:49.941Z,6.37
2018-09-04T22:29:24.299Z,6.53
2018-09-04T22:31:58.492Z,6.77
2018-09-04T22:34:33.240Z,6.90
2018-09-04T22:37:07.608Z,6.83
2018-09-04T22:39:41.940Z,6.70
2018-09-04T22:42:16.144Z,5.93
2018-09-04T22:44:50.323Z,6.87
2018-09-04T22:47:24.664Z,6.50
2018-09-04T22:50:04.252Z,7.13
2018-09-04T22:52:38.486Z,6.90
2018-09-04T22:55:13.728Z,6.43
2018-09-04T22:57:48.239Z,6.90
2018-09-04T23:00:22.552Z,6.60
2018-09-04T23:02:56.915Z,6.53
2018-09-04T23:05:31.108Z,6.37
2018-09-04T23:08:05.451Z,6.80
2018-09-04T23:10:39.767Z,6.37
2018-09-04T23:13:14.081Z,6.30
2018-09-04T23:15:48.332Z,6.80
2018-09-04T23:18:22.672Z,6.43
2018-09-04T23:20:57.006Z,7.00
2018-09-04T23:23:31.439Z,6.23
2018-09-04T23:26:05.724Z,6.20
2018-09-04T23:28:40.020Z,6.83
2018-09-04T23:31:14.355Z,6.60
2018-09-04T23:33:48.705Z,6.80
2018-09-04T23:36:23.025Z,5.90
2018-09-04T23:38:57.245Z,6.60
2018-09-04T23:41:31.548Z,6.90
2018-09-04T23:44:06.081Z,6.30
2018-09-04T23:46:40.431Z,6.70
2018-09-04T23:49:14.859Z,6.43
2018-09-04T23:51:49.137Z,6.63
2018-09-04T23:54:23.760Z,7.07
2018-09-04T23:56:58.038Z,6.07
2018-09-04T23:59:32.324Z,6.80
